LSZH/ZRH METAR and TAF weather

Enter ICAO airport designator
Station Type Date Time Source
LSZH METAR 2020/09/18 07:50 UTC NOAA

LSZH 180750Z 03004KT 350V070 9999 SCT018 BKN025 18/14 Q1022 NOSIG


Station Type Date Time Source
LSZH Decoded METAR 2020/09/18 07:50 UTC NOAA

Zurich-Kloten, Switzerland (LSZH) 47-29N 008-32E 432M
Sep 18, 2020 - 03:50 AM EDT / 2020.09.18 0750 UTC
Wind: from the NNE (030 degrees) at 5 MPH (4 KT) (direction variable):0
Visibility: greater than 7 mile(s):0
Sky conditions: mostly cloudy
Temperature: 64 F (18 C)
Dew Point: 57 F (14 C)
Relative Humidity: 77%
Pressure (altimeter): 30.18 in. Hg (1022 hPa)
ob: LSZH 180750Z 03004KT 350V070 9999 SCT018 BKN025 18/14 Q1022 NOSIG
cycle: 8

Station Type Date Time Source
LSZH TAF 2020/09/18 06:33 UTC NOAA

TAF LSZH 180525Z 1806/1912 03006KT 9999 BKN018 TX25/1815Z TN18/1806Z TN12/1905Z
BECMG 1813/1816 CAVOK
BECMG 1817/1820 VRB03KT
BECMG 1900/1903 7000 SCT006 PROB40 1902/1907 BKN006 PROB30 1905/1907 BKN003

Example: see airport list